createdAt,value
2023-01-13T00:01:27.350Z,66.77
2023-01-13T00:03:53.838Z,66.64
2023-01-13T00:06:23.139Z,65.67
2023-01-13T00:08:51.188Z,66.33
2023-01-13T00:11:18.751Z,66.65
2023-01-13T00:13:45.680Z,66.60
2023-01-13T00:16:14.941Z,66.03
2023-01-13T00:18:41.948Z,66.70
2023-01-13T00:21:12.933Z,64.63
2023-01-13T00:23:39.851Z,66.43
2023-01-13T00:26:12.598Z,66.03
2023-01-13T00:28:39.653Z,66.47
2023-01-13T00:31:12.029Z,64.75
2023-01-13T00:33:38.879Z,66.78
2023-01-13T00:36:07.459Z,66.56
2023-01-13T00:38:36.112Z,64.75
2023-01-13T00:41:05.770Z,64.40
2023-01-13T00:43:33.932Z,65.11
2023-01-13T00:46:00.383Z,58.19
2023-01-13T00:48:28.106Z,65.46
2023-01-13T00:51:08.843Z,63.76
2023-01-13T00:53:40.477Z,63.09
2023-01-13T00:56:11.576Z,65.20
2023-01-13T00:58:38.056Z,65.84
2023-01-13T01:01:11.354Z,64.34
2023-01-13T01:03:38.304Z,65.49
2023-01-13T01:06:13.241Z,65.08
2023-01-13T01:08:40.738Z,65.54
2023-01-13T01:11:15.569Z,63.46
2023-01-13T01:13:42.615Z,65.54
2023-01-13T01:16:12.130Z,64.96
2023-01-13T01:18:41.404Z,65.09
2023-01-13T01:21:08.970Z,65.32
2023-01-13T01:23:36.433Z,65.22
2023-01-13T01:26:12.589Z,63.45
2023-01-13T01:28:39.361Z,65.94
2023-01-13T01:31:08.001Z,65.15
2023-01-13T01:33:34.771Z,65.10
2023-01-13T01:36:02.571Z,65.42
2023-01-13T01:38:29.149Z,66.03
2023-01-13T01:40:55.892Z,66.03
2023-01-13T01:43:23.421Z,65.83
2023-01-13T01:45:50.022Z,63.11
2023-01-13T01:48:16.501Z,64.95
2023-01-13T01:50:43.036Z,65.25
2023-01-13T01:53:14.603Z,64.88
2023-01-13T01:55:42.176Z,64.73
2023-01-13T01:58:44.995Z,60.60
2023-01-13T02:01:15.856Z,62.75
2023-01-13T02:03:47.527Z,62.86
2023-01-13T02:06:14.982Z,65.12
2023-01-13T02:08:41.535Z,64.94
2023-01-13T02:11:08.129Z,64.69
2023-01-13T02:13:34.753Z,64.61
2023-01-13T02:16:21.579Z,58.56
2023-01-13T02:19:08.621Z,58.80
2023-01-13T02:22:01.855Z,61.74
2023-01-13T02:24:40.321Z,58.49
2023-01-13T02:27:29.508Z,60.01
2023-01-13T02:30:17.839Z,58.48
2023-01-13T02:32:58.069Z,63.98
2023-01-13T02:35:31.621Z,63.22
2023-01-13T02:38:01.063Z,62.45
2023-01-13T02:40:36.888Z,57.77
2023-01-13T02:43:14.684Z,60.64
2023-01-13T02:45:53.482Z,60.27
2023-01-13T02:48:22.645Z,63.84
2023-01-13T02:50:58.078Z,60.57
2023-01-13T02:53:34.267Z,63.13
2023-01-13T02:56:02.580Z,63.55
2023-01-13T02:58:31.108Z,63.84
2023-01-13T03:00:57.937Z,63.49
2023-01-13T03:03:25.027Z,63.11
2023-01-13T03:05:55.925Z,62.21
2023-01-13T03:08:31.269Z,60.71
2023-01-13T03:11:08.347Z,59.17
2023-01-13T03:13:51.433Z,60.64
2023-01-13T03:16:51.606Z,59.14
2023-01-13T03:19:32.155Z,61.09
2023-01-13T03:22:20.197Z,61.01
2023-01-13T03:24:52.996Z,63.01
2023-01-13T03:27:27.822Z,63.02
2023-01-13T03:30:07.237Z,60.51
2023-01-13T03:32:38.600Z,63.95
2023-01-13T03:35:16.496Z,61.72
2023-01-13T03:37:49.022Z,63.88
2023-01-13T03:40:27.286Z,61.85
2023-01-13T03:43:00.469Z,63.59
2023-01-13T03:45:27.919Z,65.50
2023-01-13T03:47:59.900Z,64.53
2023-01-13T03:50:30.754Z,64.80
2023-01-13T03:53:20.832Z,63.11
2023-01-13T03:55:51.138Z,64.69
2023-01-13T03:58:29.848Z,61.95
2023-01-13T04:01:01.160Z,63.94
2023-01-13T04:03:42.245Z,61.84
2023-01-13T04:06:21.812Z,61.40
2023-01-13T04:08:58.382Z,61.55
2023-01-13T04:11:42.564Z,60.66
2023-01-13T04:14:11.935Z,64.67
2023-01-13T04:16:38.878Z,65.55
2023-01-13T04:19:05.573Z,65.02
2023-01-13T04:21:33.637Z,65.03
2023-01-13T04:24:00.236Z,62.03
2023-01-13T04:26:26.697Z,65.65
2023-01-13T04:28:53.228Z,65.14
2023-01-13T04:31:19.870Z,64.82
2023-01-13T04:33:46.375Z,65.14
2023-01-13T04:36:13.046Z,65.58
2023-01-13T04:38:39.824Z,64.77
2023-01-13T04:41:06.621Z,65.31
2023-01-13T04:43:33.195Z,65.62
2023-01-13T04:45:59.650Z,65.62
2023-01-13T04:48:26.266Z,65.55
2023-01-13T04:50:52.765Z,65.50
2023-01-13T04:53:19.247Z,65.40
2023-01-13T04:55:45.828Z,64.80
2023-01-13T04:58:12.399Z,65.17
2023-01-13T05:00:39.271Z,65.43
2023-01-13T05:03:05.843Z,65.39
2023-01-13T05:05:32.527Z,65.60
2023-01-13T05:07:59.267Z,65.67
2023-01-13T05:10:26.389Z,65.09
2023-01-13T05:12:52.909Z,65.35
2023-01-13T05:15:19.676Z,65.23
2023-01-13T05:17:46.645Z,65.47
2023-01-13T05:20:13.527Z,65.48
2023-01-13T05:22:39.993Z,65.27
2023-01-13T05:25:09.139Z,64.00
2023-01-13T05:27:36.153Z,65.65
2023-01-13T05:30:03.179Z,64.95
2023-01-13T05:32:29.751Z,64.96
2023-01-13T05:34:56.633Z,65.46
2023-01-13T05:37:24.429Z,65.34
2023-01-13T05:39:51.406Z,65.79
2023-01-13T05:42:17.848Z,65.39
2023-01-13T05:44:44.437Z,65.70
2023-01-13T05:47:10.950Z,65.80
2023-01-13T05:49:37.435Z,65.26
2023-01-13T05:52:08.549Z,65.52
2023-01-13T05:54:35.093Z,65.68
2023-01-13T05:57:01.534Z,65.69
2023-01-13T05:59:28.065Z,65.30
2023-01-13T06:01:54.578Z,64.27
2023-01-13T06:04:21.169Z,63.54
2023-01-13T06:06:47.668Z,64.61
2023-01-13T06:09:14.437Z,64.09
2023-01-13T06:11:40.947Z,62.32
2023-01-13T06:14:07.692Z,63.52
2023-01-13T06:16:34.396Z,63.49
2023-01-13T06:19:01.013Z,64.20
2023-01-13T06:21:27.633Z,64.31
2023-01-13T06:23:54.445Z,64.61
2023-01-13T06:26:24.968Z,63.12
2023-01-13T06:28:51.457Z,64.89
2023-01-13T06:31:19.070Z,64.75
2023-01-13T06:34:00.156Z,57.82
2023-01-13T06:36:31.272Z,62.66
2023-01-13T06:39:01.707Z,63.56
2023-01-13T06:41:30.911Z,63.77
2023-01-13T06:43:57.515Z,64.96
2023-01-13T06:46:24.140Z,65.03
2023-01-13T06:48:50.791Z,65.06
2023-01-13T06:51:17.239Z,65.37
2023-01-13T06:53:44.001Z,65.29
2023-01-13T06:56:10.516Z,65.16
2023-01-13T06:58:37.000Z,65.18
2023-01-13T07:01:03.692Z,65.39
2023-01-13T07:03:30.430Z,65.16
2023-01-13T07:05:56.963Z,64.42
2023-01-13T07:08:24.500Z,63.58
2023-01-13T07:10:51.343Z,62.59
2023-01-13T07:13:18.264Z,62.69
2023-01-13T07:15:55.307Z,57.33
2023-01-13T07:18:21.962Z,63.90
2023-01-13T07:20:55.632Z,60.60
2023-01-13T07:23:23.161Z,64.30
2023-01-13T07:25:55.123Z,62.59
2023-01-13T07:28:21.715Z,64.91
2023-01-13T07:30:48.264Z,64.81
2023-01-13T07:33:14.905Z,64.21
2023-01-13T07:35:41.610Z,63.68
2023-01-13T07:38:08.103Z,63.41
2023-01-13T07:40:34.941Z,63.69
2023-01-13T07:43:01.570Z,63.78
2023-01-13T07:45:28.227Z,64.27
2023-01-13T07:47:54.732Z,64.51
2023-01-13T07:50:21.470Z,64.31
2023-01-13T07:52:47.990Z,64.20
2023-01-13T07:55:14.592Z,64.48
2023-01-13T07:57:41.465Z,64.60
2023-01-13T08:00:09.410Z,64.87
2023-01-13T08:02:37.083Z,64.95
2023-01-13T08:05:03.892Z,65.08
2023-01-13T08:07:30.400Z,64.90
2023-01-13T08:09:56.976Z,65.03
2023-01-13T08:12:23.479Z,64.90
2023-01-13T08:14:49.985Z,65.09
2023-01-13T08:17:16.460Z,65.16
2023-01-13T08:19:43.043Z,64.76
2023-01-13T08:22:09.729Z,65.20
2023-01-13T08:24:36.288Z,64.58
2023-01-13T08:27:02.902Z,64.59
2023-01-13T08:29:29.438Z,64.23
2023-01-13T08:31:55.986Z,64.08
2023-01-13T08:34:22.514Z,64.28
2023-01-13T08:36:50.093Z,64.20
2023-01-13T08:39:16.573Z,63.84
2023-01-13T08:41:43.745Z,64.29
2023-01-13T08:44:10.329Z,64.75
2023-01-13T08:46:37.186Z,64.59
2023-01-13T08:49:04.138Z,64.57
2023-01-13T08:51:30.668Z,64.46
2023-01-13T08:53:57.150Z,63.98
2023-01-13T08:56:23.727Z,63.76
2023-01-13T08:58:50.195Z,64.36
2023-01-13T09:01:21.343Z,61.61
2023-01-13T09:03:47.978Z,64.69
2023-01-13T09:06:14.441Z,64.16
2023-01-13T09:08:41.316Z,64.56
2023-01-13T09:11:17.770Z,62.58
2023-01-13T09:13:44.272Z,63.83
2023-01-13T09:16:10.855Z,64.42
2023-01-13T09:18:37.338Z,64.51
2023-01-13T09:21:04.120Z,63.34
2023-01-13T09:23:30.617Z,63.57
2023-01-13T09:25:57.190Z,63.90
2023-01-13T09:28:23.724Z,64.40
2023-01-13T09:30:50.225Z,64.20
2023-01-13T09:33:16.732Z,63.78
2023-01-13T09:35:43.177Z,60.65
2023-01-13T09:38:09.813Z,62.66
2023-01-13T09:40:38.920Z,61.49
2023-01-13T09:43:18.260Z,57.03
2023-01-13T09:46:11.134Z,55.72
2023-01-13T09:48:39.562Z,61.76
2023-01-13T09:51:17.233Z,59.43
2023-01-13T09:53:50.576Z,57.07
2023-01-13T09:56:17.211Z,63.01
2023-01-13T09:58:46.020Z,60.38
2023-01-13T10:01:37.037Z,56.37
2023-01-13T10:04:14.380Z,55.60
2023-01-13T10:06:44.107Z,60.20
2023-01-13T10:09:41.416Z,52.33
2023-01-13T10:12:15.834Z,54.96
2023-01-13T10:14:52.566Z,50.93
2023-01-13T10:17:32.443Z,58.69
2023-01-13T10:20:32.799Z,50.49
2023-01-13T10:23:28.129Z,49.51
2023-01-13T10:26:00.581Z,52.94
2023-01-13T10:28:27.136Z,59.06
2023-01-13T10:30:53.971Z,58.79
2023-01-13T10:33:27.896Z,53.24
2023-01-13T10:35:58.900Z,56.35
2023-01-13T10:38:38.146Z,57.10
2023-01-13T10:41:06.322Z,60.01
2023-01-13T10:43:32.819Z,53.35
2023-01-13T10:46:06.088Z,56.73
2023-01-13T10:48:39.628Z,57.18
2023-01-13T10:51:29.523Z,54.84
2023-01-13T10:54:12.565Z,50.46
2023-01-13T10:56:41.603Z,60.11
2023-01-13T10:59:24.882Z,56.71
2023-01-13T11:02:24.815Z,52.52
2023-01-13T11:04:55.852Z,51.69
2023-01-13T11:07:30.988Z,53.57
2023-01-13T11:10:09.306Z,50.56
2023-01-13T11:13:02.645Z,49.32
2023-01-13T11:15:41.689Z,49.73
2023-01-13T11:18:18.364Z,51.91
2023-01-13T11:20:47.634Z,55.15
2023-01-13T11:23:29.480Z,52.68
2023-01-13T11:26:26.898Z,46.77
2023-01-13T11:29:00.371Z,53.70
2023-01-13T11:31:46.280Z,50.77
2023-01-13T11:34:36.357Z,46.15
2023-01-13T11:37:12.208Z,49.11
2023-01-13T11:39:54.496Z,50.35
2023-01-13T11:42:26.537Z,50.51
2023-01-13T11:44:58.589Z,54.16
2023-01-13T11:47:26.862Z,54.44
2023-01-13T11:49:53.940Z,55.06
2023-01-13T11:52:47.506Z,54.84
2023-01-13T11:55:31.033Z,55.95
2023-01-13T11:58:35.980Z,53.42
2023-01-13T12:01:39.469Z,56.53
2023-01-13T12:04:23.598Z,56.25
2023-01-13T12:07:13.281Z,56.29
2023-01-13T12:10:13.734Z,54.51
2023-01-13T12:12:53.568Z,58.21
2023-01-13T12:15:28.141Z,59.67
2023-01-13T12:18:00.317Z,58.05
2023-01-13T12:20:39.211Z,57.05
2023-01-13T12:23:19.063Z,58.14
2023-01-13T12:25:49.594Z,59.05
2023-01-13T12:28:41.133Z,53.57
2023-01-13T12:31:08.489Z,58.65
2023-01-13T12:34:07.595Z,53.31
2023-01-13T12:37:05.172Z,53.07
2023-01-13T12:39:57.617Z,56.74
2023-01-13T12:42:45.418Z,54.04
2023-01-13T12:45:12.069Z,55.80
2023-01-13T12:47:40.947Z,55.13
2023-01-13T12:50:22.737Z,52.88
2023-01-13T12:53:31.948Z,51.90
2023-01-13T12:56:36.576Z,53.21
2023-01-13T12:59:18.656Z,53.56
2023-01-13T13:01:50.301Z,55.38
2023-01-13T13:04:41.423Z,55.11
2023-01-13T13:07:12.461Z,54.51
2023-01-13T13:10:05.773Z,55.44
2023-01-13T13:12:41.109Z,55.02
2023-01-13T13:15:20.606Z,52.80
2023-01-13T13:18:33.380Z,54.51
2023-01-13T13:21:09.823Z,56.19
2023-01-13T13:23:38.127Z,55.88
2023-01-13T13:26:20.173Z,53.15
2023-01-13T13:29:04.449Z,55.54
2023-01-13T13:31:49.717Z,58.54
2023-01-13T13:34:37.386Z,54.78
2023-01-13T13:37:28.547Z,57.35
2023-01-13T13:39:55.410Z,58.70
2023-01-13T13:42:35.289Z,54.37
2023-01-13T13:45:11.939Z,58.21
2023-01-13T13:47:39.471Z,57.83
2023-01-13T13:50:17.790Z,56.47
2023-01-13T13:52:58.828Z,55.27
2023-01-13T13:55:29.750Z,53.59
2023-01-13T13:57:57.441Z,54.49
2023-01-13T14:00:25.881Z,54.72
2023-01-13T14:03:06.708Z,52.77
2023-01-13T14:05:35.350Z,52.37
2023-01-13T14:08:18.111Z,51.15
2023-01-13T14:10:46.254Z,54.47
2023-01-13T14:13:19.888Z,53.90
2023-01-13T14:15:48.315Z,55.17
2023-01-13T14:18:18.700Z,52.71
2023-01-13T14:20:53.318Z,53.25
2023-01-13T14:23:24.746Z,54.63
2023-01-13T14:25:52.026Z,55.60
2023-01-13T14:28:31.120Z,51.19
2023-01-13T14:30:58.767Z,53.05
2023-01-13T14:33:42.791Z,53.02
2023-01-13T14:36:34.375Z,54.42
2023-01-13T14:39:03.805Z,55.65
2023-01-13T14:41:39.756Z,56.29
2023-01-13T14:44:32.045Z,57.71
2023-01-13T14:47:04.760Z,58.86
2023-01-13T14:49:40.309Z,59.19
2023-01-13T14:52:24.503Z,59.99
2023-01-13T14:54:52.345Z,61.39
2023-01-13T14:57:26.384Z,61.72
2023-01-13T15:00:00.918Z,62.51
2023-01-13T15:02:30.400Z,63.10
2023-01-13T15:05:17.784Z,64.01
2023-01-13T15:07:53.194Z,63.75
2023-01-13T15:10:23.384Z,64.97
2023-01-13T15:12:52.790Z,65.21
2023-01-13T15:15:29.357Z,64.81
2023-01-13T15:17:56.449Z,66.03
2023-01-13T15:20:24.683Z,66.35
2023-01-13T15:22:51.809Z,65.00
2023-01-13T15:25:19.066Z,66.99
2023-01-13T15:27:48.214Z,67.11
2023-01-13T15:30:15.703Z,67.57
2023-01-13T15:32:43.119Z,67.72
2023-01-13T15:35:14.189Z,67.80
2023-01-13T15:37:41.882Z,67.83
2023-01-13T15:40:20.067Z,67.00
2023-01-13T15:42:46.758Z,68.00
2023-01-13T15:45:13.403Z,67.93
2023-01-13T15:47:39.959Z,67.98
2023-01-13T15:50:13.045Z,68.18
2023-01-13T15:52:39.607Z,68.52
2023-01-13T15:55:06.332Z,68.60
2023-01-13T15:57:35.423Z,68.29
2023-01-13T16:00:07.765Z,67.90
2023-01-13T16:02:34.596Z,68.10
2023-01-13T16:06:00.085Z,68.08
2023-01-13T16:08:26.576Z,68.24
2023-01-13T16:10:53.106Z,68.14
2023-01-13T16:14:24.983Z,68.03
2023-01-13T16:16:51.469Z,68.23
2023-01-13T16:19:17.968Z,68.86
2023-01-13T16:21:44.571Z,69.19
2023-01-13T16:24:11.176Z,69.63
2023-01-13T16:26:37.718Z,70.06
2023-01-13T16:29:04.782Z,70.38
2023-01-13T16:31:33.339Z,70.39
2023-01-13T16:34:02.338Z,70.69
2023-01-13T16:36:30.454Z,70.59
2023-01-13T16:38:56.979Z,68.87
2023-01-13T16:41:23.575Z,70.67
2023-01-13T16:43:50.862Z,70.66
2023-01-13T16:46:22.083Z,69.90
2023-01-13T16:48:49.357Z,70.91
2023-01-13T16:51:16.029Z,71.07
2023-01-13T16:53:42.650Z,70.88
2023-01-13T16:56:33.627Z,69.25
2023-01-13T16:59:05.796Z,69.82
2023-01-13T17:01:34.683Z,70.44
2023-01-13T17:04:01.492Z,70.48
2023-01-13T17:06:46.654Z,69.12
2023-01-13T17:09:19.303Z,69.93
2023-01-13T17:11:45.886Z,70.75
2023-01-13T17:14:18.944Z,70.87
2023-01-13T17:16:46.474Z,70.93
2023-01-13T17:19:13.887Z,70.92
2023-01-13T17:21:40.624Z,71.14
2023-01-13T17:24:07.434Z,71.21
2023-01-13T17:26:35.324Z,71.28
2023-01-13T17:29:02.158Z,71.47
2023-01-13T17:31:29.510Z,71.57
2023-01-13T17:33:56.179Z,71.47
2023-01-13T17:36:24.735Z,71.23
2023-01-13T17:38:51.851Z,71.59
2023-01-13T17:41:18.443Z,71.42
2023-01-13T17:43:45.085Z,71.71
2023-01-13T17:46:12.734Z,71.79
2023-01-13T17:48:39.419Z,71.58
2023-01-13T17:51:11.994Z,70.65
2023-01-13T17:53:38.502Z,71.55
2023-01-13T17:56:05.382Z,71.06
2023-01-13T17:58:31.976Z,71.22
2023-01-13T18:00:58.544Z,71.36
2023-01-13T18:03:25.429Z,71.36
2023-01-13T18:05:51.927Z,71.30
2023-01-13T18:08:18.439Z,71.44
2023-01-13T18:10:45.008Z,71.42
2023-01-13T18:13:11.488Z,71.19
2023-01-13T18:15:37.993Z,71.29
2023-01-13T18:18:04.769Z,71.14
2023-01-13T18:20:31.284Z,71.20
2023-01-13T18:22:57.926Z,71.01
2023-01-13T18:25:24.596Z,71.01
2023-01-13T18:27:51.172Z,71.17
2023-01-13T18:30:17.808Z,70.88
2023-01-13T18:32:44.334Z,70.82
2023-01-13T18:35:10.905Z,70.51
2023-01-13T18:37:39.214Z,70.49
2023-01-13T18:40:08.018Z,70.26
2023-01-13T18:42:35.176Z,70.16
2023-01-13T18:45:01.756Z,69.46
2023-01-13T18:47:30.428Z,69.65
2023-01-13T18:49:57.875Z,69.12
2023-01-13T18:52:25.438Z,69.85
2023-01-13T18:54:52.695Z,69.51
2023-01-13T18:57:19.284Z,69.35
2023-01-13T18:59:45.901Z,69.12
2023-01-13T19:02:20.474Z,67.28
2023-01-13T19:04:47.779Z,68.55
2023-01-13T19:07:14.615Z,68.89
2023-01-13T19:09:41.163Z,69.23
2023-01-13T19:12:08.483Z,69.30
2023-01-13T19:14:35.297Z,69.20
2023-01-13T19:17:02.612Z,68.21
2023-01-13T19:19:29.609Z,68.80
2023-01-13T19:21:56.193Z,68.85
2023-01-13T19:24:22.750Z,68.62
2023-01-13T19:26:49.230Z,67.00
2023-01-13T19:29:15.740Z,67.42
2023-01-13T19:31:42.303Z,67.25
2023-01-13T19:34:08.851Z,66.31
2023-01-13T19:36:35.409Z,66.87
2023-01-13T19:39:01.972Z,65.94
2023-01-13T19:41:28.554Z,65.87
2023-01-13T19:43:55.144Z,65.69
2023-01-13T19:46:22.130Z,65.60
2023-01-13T19:48:48.880Z,66.08
2023-01-13T19:51:15.345Z,65.89
2023-01-13T19:53:41.930Z,65.87
2023-01-13T19:56:13.262Z,64.25
2023-01-13T19:58:39.791Z,66.40
2023-01-13T20:01:06.561Z,66.23
2023-01-13T20:03:33.881Z,66.55
2023-01-13T20:06:07.813Z,65.38
2023-01-13T20:08:34.343Z,67.67
2023-01-13T20:11:00.835Z,67.81
2023-01-13T20:13:27.381Z,67.09
2023-01-13T20:15:54.024Z,67.93
2023-01-13T20:18:20.722Z,68.00
2023-01-13T20:20:47.184Z,67.92
2023-01-13T20:23:13.670Z,67.60
2023-01-13T20:25:42.518Z,67.62
2023-01-13T20:28:09.058Z,67.87
2023-01-13T20:30:35.507Z,67.96
2023-01-13T20:33:02.139Z,67.85
2023-01-13T20:35:28.701Z,67.91
2023-01-13T20:37:55.999Z,67.95
2023-01-13T20:40:22.635Z,67.78
2023-01-13T20:42:49.083Z,68.13
2023-01-13T20:45:17.719Z,67.63
2023-01-13T20:47:45.243Z,68.25
2023-01-13T20:50:12.781Z,68.50
2023-01-13T20:52:39.403Z,68.07
2023-01-13T20:55:07.400Z,68.15
2023-01-13T20:57:34.492Z,67.94
2023-01-13T21:00:01.155Z,68.50
2023-01-13T21:02:27.687Z,68.59
2023-01-13T21:04:54.188Z,69.12
2023-01-13T21:07:20.870Z,69.26
2023-01-13T21:09:47.424Z,69.54
2023-01-13T21:12:15.273Z,70.00
2023-01-13T21:14:41.809Z,70.52
2023-01-13T21:17:10.273Z,70.66
2023-01-13T21:19:36.799Z,70.80
2023-01-13T21:22:03.389Z,71.23
2023-01-13T21:24:30.005Z,71.50
2023-01-13T21:26:56.510Z,71.58
2023-01-13T21:29:23.076Z,72.04
2023-01-13T21:31:49.613Z,72.48
2023-01-13T21:34:17.192Z,72.40
2023-01-13T21:36:43.778Z,72.48
2023-01-13T21:39:10.842Z,72.64
2023-01-13T21:41:37.395Z,72.64
2023-01-13T21:44:04.136Z,72.58
2023-01-13T21:46:30.734Z,72.44
2023-01-13T21:48:57.248Z,72.21
2023-01-13T21:51:23.901Z,72.04
2023-01-13T21:53:50.447Z,72.08
2023-01-13T21:56:17.087Z,71.82
2023-01-13T21:58:43.580Z,71.65
2023-01-13T22:01:10.270Z,71.38
2023-01-13T22:03:39.474Z,70.70
2023-01-13T22:06:06.284Z,70.81
2023-01-13T22:08:32.768Z,70.65
2023-01-13T22:11:02.500Z,70.17
2023-01-13T22:13:28.979Z,70.40
2023-01-13T22:15:55.495Z,70.28
2023-01-13T22:18:22.037Z,70.33
2023-01-13T22:20:48.602Z,70.31
2023-01-13T22:23:15.093Z,70.26
2023-01-13T22:25:41.608Z,70.48
2023-01-13T22:28:08.141Z,70.76
2023-01-13T22:30:34.609Z,71.13
2023-01-13T22:33:01.137Z,71.41
2023-01-13T22:35:27.650Z,71.44
2023-01-13T22:37:54.180Z,71.79
2023-01-13T22:40:20.722Z,71.94
2023-01-13T22:42:47.650Z,72.01
2023-01-13T22:45:14.584Z,72.30
2023-01-13T22:47:41.632Z,72.33
2023-01-13T22:50:09.157Z,72.63
2023-01-13T22:52:35.936Z,72.20
2023-01-13T22:55:02.571Z,72.34
2023-01-13T22:57:36.276Z,71.04
2023-01-13T23:00:10.404Z,72.41
2023-01-13T23:02:38.476Z,72.33
2023-01-13T23:05:05.123Z,70.89
2023-01-13T23:07:31.687Z,72.31
2023-01-13T23:09:58.205Z,71.88
2023-01-13T23:12:24.777Z,71.81
2023-01-13T23:14:51.369Z,71.63
2023-01-13T23:17:18.315Z,70.75
2023-01-13T23:19:47.402Z,71.16
2023-01-13T23:22:13.937Z,71.07
2023-01-13T23:24:40.448Z,71.28
2023-01-13T23:27:07.071Z,71.43
2023-01-13T23:29:33.665Z,71.74
2023-01-13T23:32:00.324Z,72.03
2023-01-13T23:34:26.856Z,72.24
2023-01-13T23:36:53.341Z,72.51
2023-01-13T23:39:20.157Z,72.20
2023-01-13T23:41:46.710Z,72.17
2023-01-13T23:44:13.329Z,71.94
2023-01-13T23:46:40.145Z,71.94
2023-01-13T23:49:06.782Z,71.81
2023-01-13T23:51:33.334Z,72.06
2023-01-13T23:54:00.099Z,71.77
2023-01-13T23:56:29.825Z,71.54
2023-01-13T23:58:57.262Z,71.83
